createdAt,value
2018-05-24T00:02:09.650Z,3.63
2018-05-24T00:05:10.888Z,3.30
2018-05-24T00:08:12.153Z,3.80
2018-05-24T00:11:13.394Z,3.60
2018-05-24T00:14:15.488Z,3.83
2018-05-24T00:17:16.669Z,2.97
2018-05-24T00:20:17.918Z,3.37
2018-05-24T00:23:19.912Z,3.63
2018-05-24T00:26:21.180Z,3.67
2018-05-24T00:29:22.468Z,3.60
2018-05-24T00:32:23.743Z,3.63
2018-05-24T00:35:25.009Z,3.50
2018-05-24T00:38:26.255Z,3.27
2018-05-24T00:41:27.498Z,3.60
2018-05-24T00:44:28.743Z,3.23
2018-05-24T00:47:29.977Z,3.83
2018-05-24T00:50:31.237Z,3.40
2018-05-24T00:53:32.500Z,3.67
2018-05-24T00:56:33.732Z,3.50
2018-05-24T00:59:35.012Z,3.10
2018-05-24T01:02:36.274Z,2.80
2018-05-24T01:05:37.510Z,3.07
2018-05-24T01:08:38.772Z,3.00
2018-05-24T01:11:40.049Z,3.47
2018-05-24T01:14:41.613Z,3.50
2018-05-24T01:17:43.476Z,4.07
2018-05-24T01:20:45.582Z,3.47
2018-05-24T01:23:48.021Z,3.33
2018-05-24T01:26:49.314Z,3.27
2018-05-24T01:29:50.561Z,3.57
2018-05-24T01:32:51.794Z,3.33
2018-05-24T01:35:54.026Z,4.60
2018-05-24T01:38:55.430Z,3.80
2018-05-24T01:41:57.292Z,4.10
2018-05-24T01:44:58.547Z,3.57
2018-05-24T01:47:59.800Z,3.37
2018-05-24T01:51:01.052Z,4.20
2018-05-24T01:54:02.286Z,3.90
2018-05-24T01:57:04.312Z,3.60
2018-05-24T02:00:05.579Z,3.50
2018-05-24T02:03:06.834Z,4.00
2018-05-24T02:06:08.070Z,3.63
2018-05-24T02:09:09.334Z,3.60
2018-05-24T02:12:11.309Z,3.70
2018-05-24T02:15:13.312Z,3.40
2018-05-24T02:18:14.582Z,3.20
2018-05-24T02:21:15.837Z,3.67
2018-05-24T02:24:17.096Z,4.27
2018-05-24T02:27:18.323Z,3.20
2018-05-24T02:30:19.551Z,3.60
2018-05-24T02:33:20.815Z,3.47
2018-05-24T02:36:22.067Z,3.80
2018-05-24T02:39:23.343Z,3.90
2018-05-24T02:42:24.578Z,3.60
2018-05-24T02:45:25.830Z,3.87
2018-05-24T02:48:27.133Z,3.37
2018-05-24T02:51:28.397Z,3.70
2018-05-24T02:54:29.651Z,3.57
2018-05-24T02:57:30.892Z,3.40
2018-05-24T03:00:32.114Z,4.07
2018-05-24T03:03:33.700Z,3.60
2018-05-24T03:06:35.024Z,3.97
2018-05-24T03:09:36.311Z,3.20
2018-05-24T03:12:37.588Z,3.40
2018-05-24T03:15:39.638Z,3.87
2018-05-24T03:18:40.873Z,3.80
2018-05-24T03:21:42.175Z,3.57
2018-05-24T03:24:43.422Z,3.60
2018-05-24T03:27:44.675Z,3.13
2018-05-24T03:30:45.937Z,3.67
2018-05-24T03:33:47.222Z,3.70
2018-05-24T03:36:48.460Z,3.40
2018-05-24T03:39:49.687Z,3.73
2018-05-24T03:42:51.672Z,3.37
2018-05-24T03:45:52.908Z,3.13
2018-05-24T03:48:54.134Z,3.10
2018-05-24T03:51:55.375Z,3.50
2018-05-24T03:54:56.624Z,3.40
2018-05-24T03:57:57.891Z,3.13
2018-05-24T04:01:20.131Z,2.83
2018-05-24T04:04:41.670Z,3.70
2018-05-24T04:07:43.679Z,3.43
2018-05-24T04:10:44.960Z,2.93
2018-05-24T04:13:46.190Z,2.90
2018-05-24T04:16:47.427Z,3.40
2018-05-24T04:19:49.178Z,3.57
2018-05-24T04:22:50.427Z,3.57
2018-05-24T04:25:51.675Z,4.20
2018-05-24T04:28:52.961Z,3.80
2018-05-24T04:31:54.237Z,3.90
2018-05-24T04:34:55.615Z,4.00
2018-05-24T04:37:56.881Z,4.00
2018-05-24T04:40:58.163Z,3.90
2018-05-24T04:44:00.135Z,4.23
2018-05-24T04:47:01.405Z,4.00
2018-05-24T04:50:03.405Z,4.60
2018-05-24T04:53:04.730Z,3.70
2018-05-24T04:56:05.957Z,4.30
2018-05-24T04:59:07.240Z,4.70
2018-05-24T05:02:08.504Z,4.50
2018-05-24T05:05:09.771Z,3.90
2018-05-24T05:08:11.038Z,4.63
2018-05-24T05:11:12.322Z,4.53
2018-05-24T05:14:14.296Z,4.73
2018-05-24T05:17:15.728Z,4.03
2018-05-24T05:20:16.989Z,4.67
2018-05-24T05:23:19.593Z,4.10
2018-05-24T05:26:20.856Z,4.07
2018-05-24T05:29:22.099Z,4.30
2018-05-24T05:32:23.337Z,4.70
2018-05-24T05:35:25.349Z,4.87
2018-05-24T05:38:26.610Z,4.67
2018-05-24T05:41:27.869Z,4.70
2018-05-24T05:44:29.087Z,36.77
2018-05-24T05:47:30.356Z,5.23
2018-05-24T05:50:32.334Z,5.43
2018-05-24T05:53:34.312Z,4.73
2018-05-24T05:56:35.565Z,4.80
2018-05-24T05:59:36.814Z,6.20
2018-05-24T06:02:38.180Z,5.20
2018-05-24T06:05:39.458Z,5.70
2018-05-24T06:08:41.093Z,5.00
2018-05-24T06:11:42.370Z,5.90
2018-05-24T06:14:43.583Z,5.80
2018-05-24T06:17:45.566Z,4.90
2018-05-24T06:20:46.814Z,5.53
2018-05-24T06:23:48.787Z,6.03
2018-05-24T06:26:50.028Z,6.73
2018-05-24T06:29:51.290Z,5.73
2018-05-24T06:32:52.537Z,6.70
2018-05-24T06:35:53.813Z,5.97
2018-05-24T06:38:55.050Z,6.00
2018-05-24T06:41:56.334Z,6.30
2018-05-24T06:44:57.582Z,6.63
2018-05-24T06:47:58.853Z,6.43
2018-05-24T06:51:00.126Z,6.90
2018-05-24T06:54:01.398Z,7.00
2018-05-24T06:57:02.674Z,6.93
2018-05-24T07:00:03.965Z,6.53
2018-05-24T07:03:05.971Z,6.80
2018-05-24T07:06:07.235Z,6.93
2018-05-24T07:09:08.474Z,7.40
2018-05-24T07:12:09.738Z,7.20
2018-05-24T07:15:10.982Z,6.70
2018-05-24T07:18:12.981Z,8.07
2018-05-24T07:21:14.213Z,7.10
2018-05-24T07:24:15.712Z,7.40
2018-05-24T07:27:16.955Z,7.60
2018-05-24T07:30:18.935Z,7.20
2018-05-24T07:33:20.205Z,6.93
2018-05-24T07:36:22.225Z,7.37
2018-05-24T07:39:23.475Z,6.90
2018-05-24T07:42:24.769Z,7.17
2018-05-24T07:45:25.990Z,6.40
2018-05-24T07:48:27.241Z,7.30
2018-05-24T07:51:29.218Z,8.50
2018-05-24T07:54:31.241Z,7.30
2018-05-24T07:57:32.479Z,7.70
2018-05-24T08:00:33.741Z,7.80
2018-05-24T08:03:34.984Z,8.70
2018-05-24T08:06:36.963Z,7.87
2018-05-24T08:09:38.941Z,9.47
2018-05-24T08:12:40.180Z,7.70
2018-05-24T08:15:41.441Z,8.10
2018-05-24T08:18:42.683Z,7.83
2018-05-24T08:21:43.921Z,7.23
2018-05-24T08:24:45.179Z,9.50
2018-05-24T08:27:46.402Z,8.30
2018-05-24T08:30:47.686Z,7.10
2018-05-24T08:33:49.689Z,8.83
2018-05-24T08:36:50.927Z,8.00
2018-05-24T08:39:52.906Z,7.60
2018-05-24T08:42:54.917Z,7.90
2018-05-24T08:45:56.149Z,8.13
2018-05-24T08:48:58.158Z,8.87
2018-05-24T08:51:59.387Z,8.53
2018-05-24T08:55:00.644Z,8.30
2018-05-24T08:58:01.889Z,10.37
2018-05-24T09:01:03.163Z,8.37
2018-05-24T09:04:04.436Z,8.40
2018-05-24T09:07:05.700Z,8.87
2018-05-24T09:10:06.939Z,9.80
2018-05-24T09:13:08.210Z,9.33
2018-05-24T09:16:09.449Z,10.23
2018-05-24T09:19:10.698Z,9.30
2018-05-24T09:22:11.939Z,9.67
2018-05-24T09:25:13.939Z,8.50
2018-05-24T09:28:15.245Z,9.73
2018-05-24T09:31:16.533Z,9.17
2018-05-24T09:34:18.519Z,9.00
2018-05-24T09:37:20.555Z,8.90
2018-05-24T09:40:21.786Z,8.57
2018-05-24T09:43:23.035Z,9.03
2018-05-24T09:46:25.036Z,8.50
2018-05-24T09:49:26.279Z,8.50
2018-05-24T09:52:28.266Z,9.97
2018-05-24T09:55:29.517Z,10.07
2018-05-24T09:58:31.471Z,10.20
2018-05-24T10:01:32.836Z,9.80
2018-05-24T10:04:34.139Z,9.10
2018-05-24T10:07:35.296Z,9.83
2018-05-24T10:10:36.625Z,10.03
2018-05-24T10:13:37.776Z,9.33
2018-05-24T10:16:39.138Z,9.60
2018-05-24T10:19:40.401Z,8.77
2018-05-24T10:22:41.665Z,9.40
2018-05-24T10:25:42.945Z,8.60
2018-05-24T10:28:44.203Z,10.20
2018-05-24T10:31:45.900Z,10.40
2018-05-24T10:34:47.156Z,9.53
2018-05-24T10:37:49.654Z,10.40
2018-05-24T10:40:50.906Z,9.07
2018-05-24T10:43:52.282Z,10.40
2018-05-24T10:46:54.306Z,10.23
2018-05-24T10:49:55.578Z,9.50
2018-05-24T10:52:56.825Z,9.20
2018-05-24T10:55:58.145Z,10.93
2018-05-24T10:58:59.389Z,9.50
2018-05-24T11:02:00.669Z,8.90
2018-05-24T11:05:01.911Z,10.63
2018-05-24T11:08:03.167Z,8.50
2018-05-24T11:11:05.143Z,7.90
2018-05-24T11:14:06.416Z,8.87
2018-05-24T11:17:07.650Z,9.53
2018-05-24T11:20:08.921Z,8.23
2018-05-24T11:23:10.159Z,8.70
2018-05-24T11:26:11.444Z,8.33
2018-05-24T11:29:12.685Z,8.80
2018-05-24T11:32:13.926Z,9.17
2018-05-24T11:35:15.918Z,9.50
2018-05-24T11:38:17.940Z,8.50
2018-05-24T11:41:19.181Z,8.20
2018-05-24T11:44:20.443Z,8.57
2018-05-24T11:47:21.686Z,9.33
2018-05-24T11:50:23.675Z,9.30
2018-05-24T11:53:24.899Z,9.47
2018-05-24T11:56:26.162Z,9.00
2018-05-24T11:59:27.418Z,7.10
2018-05-24T12:02:28.700Z,3.80
2018-05-24T12:05:29.960Z,3.70
2018-05-24T12:08:31.248Z,3.30
2018-05-24T12:11:33.222Z,3.60
2018-05-24T12:14:35.221Z,3.40
2018-05-24T12:17:36.464Z,3.60
2018-05-24T12:20:38.459Z,3.37
2018-05-24T12:23:39.728Z,4.07
2018-05-24T12:26:41.721Z,3.60
2018-05-24T12:29:42.949Z,3.30
2018-05-24T12:32:44.967Z,3.60
2018-05-24T12:35:46.192Z,4.03
2018-05-24T12:38:48.839Z,3.30
2018-05-24T12:45:55.015Z,3.87
2018-05-24T12:48:57.085Z,3.03
2018-05-24T12:51:58.288Z,3.37
2018-05-24T12:54:59.549Z,3.77
2018-05-24T12:58:00.833Z,4.40
2018-05-24T13:01:02.093Z,4.10
2018-05-24T13:04:08.921Z,4.07
2018-05-24T13:07:11.127Z,4.83
2018-05-24T13:10:12.797Z,4.03
2018-05-24T13:13:14.672Z,4.40
2018-05-24T13:16:15.944Z,3.87
2018-05-24T13:19:18.274Z,4.63
2018-05-24T13:22:19.547Z,4.00
2018-05-24T13:25:21.165Z,3.70
2018-05-24T13:28:23.623Z,4.03
2018-05-24T13:31:24.967Z,3.50
2018-05-24T13:34:26.542Z,4.37
2018-05-24T13:37:28.332Z,3.83
2018-05-24T13:40:30.483Z,4.47
2018-05-24T13:43:32.528Z,4.63
2018-05-24T13:46:35.077Z,4.17
2018-05-24T13:49:36.749Z,4.23
2018-05-24T13:52:38.206Z,4.00
2018-05-24T13:55:39.607Z,3.97
2018-05-24T13:58:42.597Z,3.83
2018-05-24T14:01:44.289Z,4.20
2018-05-24T14:04:45.479Z,3.97
2018-05-24T14:07:47.465Z,4.87
2018-05-24T14:10:49.945Z,4.30
2018-05-24T14:13:51.491Z,4.77
2018-05-24T14:16:53.271Z,4.33
2018-05-24T14:19:54.922Z,3.90
2018-05-24T14:22:57.144Z,5.10
2018-05-24T14:25:59.516Z,4.83
2018-05-24T14:29:00.758Z,6.40
2018-05-24T14:32:02.016Z,17.03
2018-05-24T14:35:03.289Z,8.20
2018-05-24T14:38:04.552Z,7.00
2018-05-24T14:41:05.829Z,8.00
2018-05-24T14:44:07.075Z,6.50
2018-05-24T14:47:09.077Z,8.70
2018-05-24T14:50:10.345Z,8.13
2018-05-24T14:53:11.577Z,8.30
2018-05-24T14:56:12.826Z,8.40
2018-05-24T14:59:14.062Z,7.97
2018-05-24T15:02:15.310Z,8.30
2018-05-24T15:05:17.329Z,8.67
2018-05-24T15:08:18.593Z,10.27
2018-05-24T15:11:19.847Z,8.90
2018-05-24T15:14:21.077Z,9.20
2018-05-24T15:17:23.088Z,9.20
2018-05-24T15:20:24.351Z,8.37
2018-05-24T15:23:25.588Z,9.30
2018-05-24T15:26:27.593Z,10.33
2018-05-24T15:29:28.846Z,9.63
2018-05-24T15:32:30.072Z,10.47
2018-05-24T15:35:31.353Z,10.37
2018-05-24T15:38:33.341Z,9.57
2018-05-24T15:41:35.352Z,9.70
2018-05-24T15:44:36.589Z,8.80
2018-05-24T15:47:38.569Z,8.93
2018-05-24T15:50:40.557Z,8.30
2018-05-24T15:53:41.875Z,8.90
2018-05-24T15:56:43.148Z,9.73
2018-05-24T15:59:44.425Z,10.53
2018-05-24T16:02:46.421Z,9.63
2018-05-24T16:05:47.685Z,9.10
2018-05-24T16:08:50.751Z,9.60
2018-05-24T16:11:52.046Z,9.40
2018-05-24T16:14:54.049Z,8.67
2018-05-24T16:17:55.310Z,8.57
2018-05-24T16:20:56.550Z,10.07
2018-05-24T16:23:58.567Z,8.90
2018-05-24T16:26:59.844Z,9.10
2018-05-24T16:30:01.138Z,9.27
2018-05-24T16:33:02.385Z,9.63
2018-05-24T16:36:03.651Z,11.13
2018-05-24T16:39:04.937Z,10.20
2018-05-24T16:42:06.198Z,11.03
2018-05-24T16:45:07.461Z,10.67
2018-05-24T16:48:08.757Z,11.30
2018-05-24T16:51:09.993Z,10.43
2018-05-24T16:54:11.432Z,10.70
2018-05-24T16:57:12.612Z,9.63
2018-05-24T17:00:13.861Z,10.00
2018-05-24T17:03:15.099Z,10.23
2018-05-24T17:06:16.350Z,9.63
2018-05-24T17:09:17.626Z,10.83
2018-05-24T17:12:18.870Z,9.80
2018-05-24T17:15:20.134Z,9.20
2018-05-24T17:18:21.365Z,9.77
2018-05-24T17:21:22.626Z,8.00
2018-05-24T17:24:23.838Z,8.53
2018-05-24T17:27:25.099Z,8.53
2018-05-24T17:30:26.376Z,8.83
2018-05-24T17:33:27.615Z,8.10
2018-05-24T17:36:28.870Z,8.67
2018-05-24T17:39:30.117Z,7.73
2018-05-24T17:42:32.080Z,8.50
2018-05-24T17:45:33.338Z,8.57
2018-05-24T17:48:34.590Z,8.47
2018-05-24T17:51:35.868Z,8.00
2018-05-24T17:54:37.129Z,8.23
2018-05-24T17:57:38.362Z,7.97
2018-05-24T18:00:40.110Z,8.10
2018-05-24T18:03:41.379Z,7.97
2018-05-24T18:06:42.656Z,7.80
2018-05-24T18:09:43.910Z,8.23
2018-05-24T18:12:45.179Z,8.20
2018-05-24T18:15:46.438Z,8.30
2018-05-24T18:18:50.735Z,8.20
2018-05-24T18:21:52.492Z,8.47
2018-05-24T18:24:54.741Z,6.97
2018-05-24T18:27:56.005Z,8.47
2018-05-24T18:30:57.372Z,7.60
2018-05-24T18:33:58.650Z,7.47
2018-05-24T18:36:59.907Z,8.10
2018-05-24T18:40:01.157Z,7.87
2018-05-24T18:43:02.480Z,8.13
2018-05-24T18:46:04.491Z,8.23
2018-05-24T18:49:05.715Z,8.60
2018-05-24T18:52:07.005Z,8.60
2018-05-24T18:55:08.238Z,8.60
2018-05-24T18:58:10.052Z,8.10
2018-05-24T19:01:11.343Z,8.43
2018-05-24T19:04:12.615Z,7.80
2018-05-24T19:07:14.388Z,7.47
2018-05-24T19:10:16.128Z,8.30
2018-05-24T19:13:17.471Z,7.53
2018-05-24T19:16:18.941Z,7.23
2018-05-24T19:19:20.245Z,8.70
2018-05-24T19:22:21.721Z,8.13
2018-05-24T19:25:22.967Z,7.30
2018-05-24T19:28:24.252Z,9.30
2018-05-24T19:31:25.763Z,7.60
2018-05-24T19:34:27.761Z,7.90
2018-05-24T19:37:29.032Z,7.97
2018-05-24T19:40:30.315Z,7.80
2018-05-24T19:43:31.658Z,6.80
2018-05-24T19:46:34.015Z,8.60
2018-05-24T19:49:35.392Z,8.10
2018-05-24T19:52:37.675Z,7.87
2018-05-24T19:55:40.817Z,7.70
2018-05-24T19:58:42.102Z,8.63
2018-05-24T20:01:43.538Z,8.77
2018-05-24T20:04:44.907Z,7.90
2018-05-24T20:07:46.177Z,6.20
2018-05-24T20:10:47.452Z,20.97
2018-05-24T20:13:48.693Z,31.20
2018-05-24T20:16:50.200Z,14.87
2018-05-24T20:19:51.625Z,12.17
2018-05-24T20:22:52.906Z,8.23
2018-05-24T20:25:54.161Z,8.10
2018-05-24T20:28:55.541Z,8.07
2018-05-24T20:31:58.868Z,7.80
2018-05-24T20:35:00.918Z,9.07
2018-05-24T20:38:02.920Z,8.80
2018-05-24T20:41:04.213Z,9.70
2018-05-24T20:44:05.561Z,8.90
2018-05-24T20:47:06.892Z,9.00
2018-05-24T20:50:09.657Z,10.33
2018-05-24T20:53:14.952Z,9.10
2018-05-24T20:56:16.247Z,9.93
2018-05-24T20:59:18.861Z,10.33
2018-05-24T21:02:20.804Z,10.40
2018-05-24T21:05:22.126Z,10.23
2018-05-24T21:08:24.144Z,11.27
2018-05-24T21:11:25.440Z,10.40
2018-05-24T21:14:26.690Z,11.27
2018-05-24T21:17:28.191Z,11.00
2018-05-24T21:20:29.429Z,10.10
2018-05-24T21:23:32.861Z,10.47
2018-05-24T21:26:34.599Z,11.43
2018-05-24T21:29:37.670Z,12.93
2018-05-24T21:32:39.655Z,9.87
2018-05-24T21:35:41.669Z,11.10
2018-05-24T21:38:43.677Z,11.97
2018-05-24T21:41:44.978Z,10.83
2018-05-24T21:44:46.982Z,12.00
2018-05-24T21:47:48.294Z,11.57
2018-05-24T21:50:49.601Z,11.67
2018-05-24T21:53:51.603Z,10.47
2018-05-24T21:56:52.865Z,12.00
2018-05-24T21:59:54.127Z,10.83
2018-05-24T22:02:55.379Z,11.83
2018-05-24T22:05:56.711Z,11.30
2018-05-24T22:08:57.945Z,12.40
2018-05-24T22:11:59.967Z,12.00
2018-05-24T22:15:01.944Z,11.50
2018-05-24T22:18:03.975Z,12.70
2018-05-24T22:21:05.971Z,12.00
2018-05-24T22:24:07.199Z,12.37
2018-05-24T22:27:08.431Z,11.10
2018-05-24T22:30:10.443Z,11.70
2018-05-24T22:33:11.690Z,13.40
2018-05-24T22:36:12.935Z,13.00
2018-05-24T22:39:14.914Z,13.27
2018-05-24T22:42:16.967Z,13.20
2018-05-24T22:45:18.205Z,15.27
2018-05-24T22:48:19.436Z,14.50
2018-05-24T22:51:21.418Z,14.33
2018-05-24T22:54:22.685Z,14.50
2018-05-24T22:57:23.935Z,14.97
2018-05-24T23:00:25.988Z,15.00
2018-05-24T23:03:27.210Z,14.93
2018-05-24T23:06:28.498Z,14.57
2018-05-24T23:09:29.773Z,14.43
2018-05-24T23:12:31.026Z,16.13
2018-05-24T23:15:32.305Z,14.80
2018-05-24T23:18:33.550Z,13.40
2018-05-24T23:21:34.806Z,13.97
2018-05-24T23:24:36.050Z,15.20
2018-05-24T23:27:37.309Z,13.83
2018-05-24T23:30:38.581Z,15.63
2018-05-24T23:33:39.874Z,14.93
2018-05-24T23:36:41.872Z,14.27
2018-05-24T23:39:43.130Z,15.60
2018-05-24T23:42:44.372Z,16.07
2018-05-24T23:45:45.621Z,15.60
2018-05-24T23:48:46.874Z,14.83
2018-05-24T23:51:48.106Z,16.50
2018-05-24T23:54:50.097Z,16.87
2018-05-24T23:57:54.732Z,16.60
